Addington Field Information

FAA: EKX - ICAO: KEKX

Addington Field (Airport) Location

State Kentucky
County Hardin
City Elizabethtown
Addington Field (Airport) is 4 miles west of Elizabethtown, KY.
Latitude 37-41-09.6000N
Longitude 085-55-30.1000W
Elevation 775ft

Addington Field METARs

METAR KEKX 301915Z AUTO 26003KT 10SM CLR 15/03 A3009 RMK AO2 T01470026
Altimeter 30.09"
Temperature 14.7°C (58.5°F)
Wind 260° at 3KT
Clouds Skies are clear.
Visibility 10.0mi
Time observed: 2021-11-30T19:15:00Z

Addington Field (Airport) Details

Status Operational
Activation June 1982
Ownership Public
Usage Public
Chart ST LOUIS
ATC on-site No
Beacon schedule sunset-sunrise
Beacon color clear green

Addington Field (Airport) Contacts

Owner ELIZABETHTOWN AIRPORT BOARD
Owner address 1828 KITTY HAWK DR, ELIZABETHTOWN, KY 42701
Owner phone (270) 737-8388
Manager SHARON O'ROURKE
Manager address 1880 NORTH US 119, CUMBERLAND, KY 40823
Manager phone 606-574-8423

Addington Field Radio Frequencies

Addington Field (Airport) Radio Frequencies

UNICOM 122.8
Common traffic advisory frequency (CTAF) 122.8